Time;durP1;ratioP1;P1;durP2;ratioP2;P2;SDS_P1;SDS_P2;PMS_P1;PMS_P2;Temp;Humidity;BMP_temperature;BMP_pressure;BME280_temperature;BME280_humidity;BME280_pressure;Samples;Min_cycle;Max_cycle;Signal;HPM_P1;HPM_P2
2023/03/07 00:01:32;;;;;;;20.35;11.85;;;1.50;93.30;;;;;;5028612;28;20029;-66
2023/03/07 00:03:58;;;;;;;22.88;12.65;;;1.50;93.50;;;;;;5028887;28;20021;-67
2023/03/07 00:06:24;;;;;;;21.38;12.45;;;1.40;93.60;;;;;;5034739;28;20085;-67
2023/03/07 00:08:56;;;;;;;23.73;13.25;;;1.40;93.60;;;;;;5023144;28;20038;-67
2023/03/07 00:11:21;;;;;;;21.90;13.07;;;1.40;93.60;;;;;;5023434;28;20021;-66
2023/03/07 00:13:47;;;;;;;25.35;12.70;;;1.40;93.80;;;;;;5036320;28;20034;-67
2023/03/07 00:16:16;;;;;;;21.55;12.80;;;1.40;94.00;;;;;;5029410;28;20025;-67
2023/03/07 00:18:42;;;;;;;24.65;13.23;;;1.30;94.40;;;;;;5032664;28;20321;-66
2023/03/07 00:21:14;;;;;;;22.25;12.65;;;1.30;94.50;;;;;;5024109;28;20053;-66
2023/03/07 00:23:42;;;;;;;24.70;12.45;;;1.20;94.80;;;;;;5031727;28;20024;-68
2023/03/07 00:26:11;;;;;;;20.38;11.93;;;1.20;94.90;;;;;;5025713;28;20465;-67
2023/03/07 00:28:37;;;;;;;21.27;13.18;;;1.10;95.10;;;;;;5037204;28;20083;-66
2023/03/07 00:31:05;;;;;;;23.33;12.30;;;1.10;95.20;;;;;;5027106;28;20038;-67
2023/03/07 00:33:31;;;;;;;22.90;12.82;;;1.20;94.90;;;;;;5036594;28;20399;-67
2023/03/07 00:36:03;;;;;;;21.08;12.63;;;1.20;94.60;;;;;;5026711;28;20062;-67
2023/03/07 00:38:30;;;;;;;23.48;12.73;;;1.20;94.60;;;;;;5022672;28;20025;-67
2023/03/07 00:41:09;;;;;;;22.23;13.38;;;1.20;94.70;;;;;;5026694;28;20057;-67
2023/03/07 00:43:35;;;;;;;21.63;12.75;;;1.20;94.90;;;;;;5034512;28;20105;-67
2023/03/07 00:46:01;;;;;;;22.90;13.85;;;1.20;94.80;;;;;;5019009;28;20022;-67
2023/03/07 00:48:28;;;;;;;22.27;12.68;;;1.20;94.70;;;;;;5018473;28;20022;-67
2023/03/07 00:50:54;;;;;;;24.05;14.10;;;1.20;94.80;;;;;;5026125;28;20117;-67
2023/03/07 00:53:20;;;;;;;23.05;13.38;;;1.20;94.90;;;;;;5031515;28;20343;-67
2023/03/07 00:55:59;;;;;;;22.52;13.82;;;1.10;95.10;;;;;;5027285;28;20026;-67
2023/03/07 00:58:26;;;;;;;22.98;13.20;;;1.10;95.30;;;;;;5021229;28;20315;-67
2023/03/07 01:00:53;;;;;;;24.63;13.80;;;1.00;95.60;;;;;;5032079;28;20044;-67
2023/03/07 01:03:19;;;;;;;24.38;14.23;;;1.00;95.80;;;;;;5050908;28;20037;-67
2023/03/07 01:05:45;;;;;;;25.45;13.23;;;1.00;95.40;;;;;;5028769;28;20088;-67
2023/03/07 01:08:11;;;;;;;21.65;12.63;;;1.10;95.00;;;;;;5027212;28;20030;-67
2023/03/07 01:10:37;;;;;;;22.63;13.27;;;1.10;94.90;;;;;;5024088;28;20362;-67
2023/03/07 01:13:03;;;;;;;22.77;13.30;;;1.20;94.80;;;;;;5035817;28;20026;-67
2023/03/07 01:15:29;;;;;;;21.15;12.48;;;1.20;94.80;;;;;;5031499;28;20441;-66
2023/03/07 01:17:55;;;;;;;24.13;13.00;;;1.20;94.60;;;;;;5045408;28;20026;-67
2023/03/07 01:20:21;;;;;;;26.75;13.98;;;1.20;94.80;;;;;;5030292;28;20502;-67
2023/03/07 01:22:47;;;;;;;24.77;13.10;;;1.20;94.80;;;;;;5028978;28;20037;-67
2023/03/07 01:25:12;;;;;;;22.23;12.88;;;1.20;94.80;;;;;;5026153;28;20032;-67
2023/03/07 01:27:38;;;;;;;21.58;11.98;;;1.10;94.90;;;;;;5024211;28;20064;-67
2023/03/07 01:30:06;;;;;;;19.92;12.98;;;1.10;94.90;;;;;;5020342;28;20037;-67
2023/03/07 01:32:32;;;;;;;22.17;12.32;;;1.10;94.90;;;;;;5035445;28;20446;-67
2023/03/07 01:34:57;;;;;;;24.55;12.63;;;1.20;94.80;;;;;;5031102;28;20037;-68
2023/03/07 01:37:23;;;;;;;23.55;13.68;;;1.20;94.90;;;;;;5037142;28;20022;-67
2023/03/07 01:39:53;;;;;;;20.65;12.63;;;1.20;94.70;;;;;;5034080;28;20071;-67
2023/03/07 01:42:20;;;;;;;20.83;12.13;;;1.20;94.60;;;;;;5038015;28;20025;-67
2023/03/07 01:45:13;;;;;;;27.05;13.10;;;1.20;94.50;;;;;;5036029;28;20056;-67
2023/03/07 01:47:39;;;;;;;20.48;12.27;;;1.20;94.00;;;;;;5040803;28;20021;-67
2023/03/07 01:50:08;;;;;;;20.50;11.65;;;1.30;93.50;;;;;;5032855;28;20036;-67
2023/03/07 01:52:40;;;;;;;23.20;12.70;;;1.30;93.30;;;;;;5027983;28;20029;-67
2023/03/07 01:55:18;;;;;;;19.92;11.35;;;1.30;93.30;;;;;;5030659;28;20044;-67
2023/03/07 01:57:45;;;;;;;20.48;11.63;;;1.30;92.90;;;;;;5040308;28;20082;-67
2023/03/07 02:00:18;;;;;;;23.02;12.65;;;1.40;92.40;;;;;;5045410;28;20058;-67
2023/03/07 02:02:48;;;;;;;24.10;11.60;;;1.40;92.10;;;;;;5042273;28;20036;-66
2023/03/07 02:05:29;;;;;;;22.55;12.57;;;1.40;92.00;;;;;;5035852;28;20103;-66
2023/03/07 02:07:57;;;;;;;19.98;11.43;;;1.40;91.70;;;;;;5030865;28;20040;-66
2023/03/07 02:10:25;;;;;;;22.15;12.40;;;1.40;91.00;;;;;;5033204;28;20560;-65
2023/03/07 02:12:53;;;;;;;21.23;12.63;;;1.50;91.00;;;;;;5040683;28;20037;-65
2023/03/07 02:15:19;;;;;;;20.40;11.82;;;1.40;91.00;;;;;;5041624;28;20095;-65
2023/03/07 02:17:45;;;;;;;20.98;11.57;;;1.40;91.10;;;;;;5034200;28;20057;-65
2023/03/07 02:20:25;;;;;;;18.92;10.82;;;1.40;91.20;;;;;;5036194;28;20503;-65
2023/03/07 02:22:52;;;;;;;22.63;11.82;;;1.40;90.90;;;;;;5025180;28;20095;-66
2023/03/07 02:25:35;;;;;;;20.95;11.98;;;1.50;90.50;;;;;;5031554;28;20021;-66
2023/03/07 02:28:03;;;;;;;18.65;11.38;;;1.50;90.60;;;;;;5030857;28;20030;-67
2023/03/07 02:30:30;;;;;;;19.92;11.43;;;1.50;90.70;;;;;;5028985;28;20086;-66
2023/03/07 02:33:01;;;;;;;20.33;11.40;;;1.50;90.60;;;;;;5030655;28;20441;-66
2023/03/07 02:35:27;;;;;;;20.58;12.18;;;1.50;90.40;;;;;;5028570;28;20028;-66
2023/03/07 02:37:58;;;;;;;21.40;12.23;;;1.40;90.60;;;;;;5017812;28;20024;-66
2023/03/07 02:40:27;;;;;;;21.90;12.15;;;1.40;90.50;;;;;;5024977;28;20036;-66
2023/03/07 02:42:55;;;;;;;24.73;12.27;;;1.40;90.50;;;;;;5016519;28;20018;-66
2023/03/07 02:45:21;;;;;;;20.77;10.75;;;1.30;90.50;;;;;;5032716;28;20075;-66
2023/03/07 02:47:46;;;;;;;22.58;11.77;;;1.20;91.00;;;;;;5033528;28;20030;-66
2023/03/07 02:50:13;;;;;;;23.60;13.05;;;1.20;91.10;;;;;;5032033;28;20116;-67
2023/03/07 02:52:40;;;;;;;21.60;11.82;;;1.10;91.20;;;;;;5035376;28;20033;-67
2023/03/07 02:55:06;;;;;;;22.77;11.85;;;1.10;91.50;;;;;;5028783;28;20037;-68
2023/03/07 02:57:32;;;;;;;19.90;11.80;;;0.90;91.80;;;;;;5029238;28;20791;-67
2023/03/07 03:00:09;;;;;;;18.70;10.75;;;0.80;92.40;;;;;;5040179;28;20048;-67
2023/03/07 03:02:34;;;;;;;21.17;12.43;;;0.70;92.50;;;;;;5027724;28;20028;-67
2023/03/07 03:05:00;;;;;;;21.40;13.55;;;0.60;92.80;;;;;;5034201;28;20026;-67
2023/03/07 03:07:25;;;;;;;24.02;12.75;;;0.70;92.50;;;;;;5035409;28;20033;-68
2023/03/07 03:09:51;;;;;;;19.48;11.85;;;0.80;92.10;;;;;;5041491;28;20037;-68
2023/03/07 03:12:17;;;;;;;24.13;12.18;;;0.80;91.90;;;;;;5034075;28;20434;-67
2023/03/07 03:14:42;;;;;;;25.27;12.88;;;0.80;91.70;;;;;;5030982;28;20032;-67
2023/03/07 03:17:08;;;;;;;22.33;11.70;;;0.80;91.70;;;;;;5039080;28;20441;-67
2023/03/07 03:19:33;;;;;;;21.17;11.50;;;0.90;91.70;;;;;;5037196;28;20091;-68
2023/03/07 03:21:59;;;;;;;21.60;12.20;;;0.90;91.40;;;;;;5032505;28;20040;-67
2023/03/07 03:24:24;;;;;;;20.90;11.52;;;1.00;91.00;;;;;;5017552;28;20042;-68
2023/03/07 03:26:50;;;;;;;20.90;11.73;;;1.10;90.90;;;;;;5034147;28;20354;-67
2023/03/07 03:29:15;;;;;;;20.05;12.32;;;1.20;90.50;;;;;;5035349;28;20038;-68
2023/03/07 03:31:41;;;;;;;22.23;11.90;;;1.20;90.40;;;;;;5029996;28;20091;-68
2023/03/07 03:34:07;;;;;;;19.05;11.07;;;1.20;90.30;;;;;;5036322;28;20057;-67
2023/03/07 03:36:32;;;;;;;18.42;11.18;;;1.20;90.20;;;;;;5042168;28;20429;-67
2023/03/07 03:38:59;;;;;;;20.77;12.05;;;1.20;90.00;;;;;;5021136;28;20030;-67
2023/03/07 03:41:25;;;;;;;19.13;11.52;;;1.20;90.00;;;;;;5035325;28;20070;-67
2023/03/07 03:43:51;;;;;;;20.58;11.88;;;1.20;90.10;;;;;;5033722;28;20159;-67
2023/03/07 03:46:18;;;;;;;17.98;10.38;;;1.20;89.90;;;;;;5028838;28;20021;-68
2023/03/07 03:48:50;;;;;;;20.33;10.82;;;1.20;90.00;;;;;;5042535;28;20330;-68
2023/03/07 03:51:15;;;;;;;18.65;11.35;;;1.20;89.90;;;;;;5038863;28;20423;-67
2023/03/07 03:53:41;;;;;;;24.92;11.00;;;1.20;89.70;;;;;;5031855;28;20155;-68
2023/03/07 03:56:12;;;;;;;20.00;10.77;;;1.30;89.30;;;;;;5030887;28;20670;-67
2023/03/07 03:58:39;;;;;;;19.23;11.80;;;1.30;89.20;;;;;;5042820;28;20037;-68
2023/03/07 04:01:06;;;;;;;21.42;11.23;;;1.40;89.00;;;;;;5039771;28;20067;-67
2023/03/07 04:03:40;;;;;;;19.38;11.20;;;1.40;88.90;;;;;;5028453;28;20021;-67
2023/03/07 04:06:08;;;;;;;21.17;11.80;;;1.50;88.80;;;;;;5038833;28;21084;-67
2023/03/07 04:08:37;;;;;;;21.98;11.75;;;1.50;88.60;;;;;;5034237;28;20427;-68
2023/03/07 04:11:03;;;;;;;18.95;11.55;;;1.40;88.60;;;;;;5024645;28;20321;-67
2023/03/07 04:13:30;;;;;;;21.35;11.63;;;1.50;88.50;;;;;;5025020;28;20033;-67
2023/03/07 04:15:55;;;;;;;20.73;11.55;;;1.50;88.70;;;;;;5034747;28;20323;-66
2023/03/07 04:18:22;;;;;;;20.05;11.48;;;1.40;88.90;;;;;;5037120;28;20029;-67
2023/03/07 04:20:52;;;;;;;20.25;11.98;;;1.50;89.00;;;;;;5034958;28;20021;-67
2023/03/07 04:23:19;;;;;;;21.52;12.55;;;1.50;88.90;;;;;;5031217;28;20112;-67
2023/03/07 04:25:54;;;;;;;20.90;12.00;;;1.50;88.70;;;;;;5034356;28;20091;-68
2023/03/07 04:28:24;;;;;;;21.52;11.60;;;1.50;88.70;;;;;;5022690;28;20025;-66
2023/03/07 04:30:51;;;;;;;18.35;11.07;;;1.50;88.90;;;;;;5030699;28;20033;-66
2023/03/07 04:33:19;;;;;;;23.05;12.05;;;1.50;88.90;;;;;;5028440;28;20036;-66
2023/03/07 04:35:45;;;;;;;19.33;11.73;;;1.60;88.70;;;;;;5020380;28;20025;-66
2023/03/07 04:38:12;;;;;;;21.75;12.38;;;1.50;88.70;;;;;;5049269;28;20049;-67
2023/03/07 04:40:37;;;;;;;19.40;11.45;;;1.50;88.80;;;;;;5026345;28;20371;-67
2023/03/07 04:43:04;;;;;;;22.05;12.05;;;1.50;89.30;;;;;;5026603;28;20056;-66
2023/03/07 04:45:32;;;;;;;20.35;11.27;;;1.60;89.20;;;;;;5036642;28;20105;-66
2023/03/07 04:47:58;;;;;;;19.08;10.90;;;1.50;89.20;;;;;;5045670;28;20044;-66
2023/03/07 04:50:24;;;;;;;21.85;12.20;;;1.50;89.20;;;;;;5034507;28;20083;-68
2023/03/07 04:52:49;;;;;;;20.85;11.55;;;1.60;89.40;;;;;;5035111;28;20152;-66
2023/03/07 04:55:15;;;;;;;20.92;11.30;;;1.60;89.40;;;;;;5043719;28;20037;-66
2023/03/07 04:57:40;;;;;;;19.42;11.23;;;1.50;89.70;;;;;;5037160;28;20079;-66
2023/03/07 05:00:09;;;;;;;19.80;12.20;;;1.50;89.70;;;;;;5044086;28;20117;-66
2023/03/07 05:02:37;;;;;;;21.33;12.80;;;1.50;90.00;;;;;;5018903;28;20411;-66
2023/03/07 05:05:04;;;;;;;21.65;11.63;;;1.50;90.00;;;;;;5032549;28;20422;-66
2023/03/07 05:07:30;;;;;;;19.23;11.40;;;1.50;89.90;;;;;;5034059;28;20037;-65
2023/03/07 05:09:56;;;;;;;21.67;12.68;;;1.60;89.80;;;;;;5039000;28;20029;-66
2023/03/07 05:12:22;;;;;;;21.52;11.90;;;1.50;90.10;;;;;;5031598;28;20453;-65
2023/03/07 05:14:47;;;;;;;18.50;10.60;;;1.50;90.40;;;;;;5035963;28;20021;-65
2023/03/07 05:17:17;;;;;;;20.88;12.40;;;1.50;90.50;;;;;;5033112;28;20033;-65
2023/03/07 05:19:43;;;;;;;17.98;11.00;;;1.50;90.50;;;;;;5041897;28;20082;-65
2023/03/07 05:22:08;;;;;;;23.00;11.90;;;1.50;90.50;;;;;;5033236;28;20104;-66
2023/03/07 05:24:34;;;;;;;18.67;11.00;;;1.50;90.30;;;;;;5037439;28;20325;-67
2023/03/07 05:27:01;;;;;;;18.85;10.95;;;1.50;90.10;;;;;;5045347;28;20410;-67
2023/03/07 05:29:26;;;;;;;17.80;10.38;;;1.50;90.00;;;;;;5034192;28;20109;-67
2023/03/07 05:31:52;;;;;;;19.60;10.77;;;1.60;89.40;;;;;;5034374;28;20116;-67
2023/03/07 05:34:18;;;;;;;18.90;11.07;;;1.60;89.60;;;;;;5023179;28;20080;-67
2023/03/07 05:36:43;;;;;;;18.95;11.38;;;1.60;89.40;;;;;;5031160;28;20040;-67
2023/03/07 05:39:11;;;;;;;18.33;10.25;;;1.60;89.80;;;;;;5035624;28;20087;-67
2023/03/07 05:41:37;;;;;;;18.08;10.43;;;1.60;89.80;;;;;;5033796;28;20087;-67
2023/03/07 05:44:03;;;;;;;18.35;10.73;;;1.50;89.90;;;;;;5036221;28;20025;-67
2023/03/07 05:46:28;;;;;;;18.25;10.77;;;1.50;89.80;;;;;;5035705;28;20017;-67
2023/03/07 05:48:54;;;;;;;18.13;11.50;;;1.50;89.90;;;;;;5021225;28;20029;-67
2023/03/07 05:51:20;;;;;;;18.45;11.13;;;1.50;90.40;;;;;;5028125;28;20025;-66
2023/03/07 05:53:46;;;;;;;17.65;10.13;;;1.50;90.20;;;;;;5018019;28;20037;-66
2023/03/07 05:56:12;;;;;;;18.05;10.70;;;1.50;90.30;;;;;;5026184;28;20036;-67
2023/03/07 05:58:37;;;;;;;21.08;11.65;;;1.50;90.00;;;;;;5037992;28;20029;-66
2023/03/07 06:01:03;;;;;;;18.50;10.73;;;1.50;90.00;;;;;;5025448;28;20335;-67
2023/03/07 06:03:29;;;;;;;20.20;11.18;;;1.50;89.90;;;;;;5017589;28;20026;-66
2023/03/07 06:05:55;;;;;;;18.95;10.48;;;1.50;89.80;;;;;;5022478;28;20344;-67
2023/03/07 06:08:21;;;;;;;20.75;11.05;;;1.40;90.30;;;;;;5035889;28;20026;-67
2023/03/07 06:10:51;;;;;;;18.05;10.82;;;1.40;90.00;;;;;;5039972;28;20363;-67
2023/03/07 06:13:20;;;;;;;18.65;11.88;;;1.30;90.00;;;;;;5036753;28;20095;-67
2023/03/07 06:15:50;;;;;;;21.83;11.20;;;1.30;90.10;;;;;;5034149;28;20037;-67
2023/03/07 06:18:15;;;;;;;20.08;11.38;;;1.40;90.00;;;;;;5036478;28;20013;-67
2023/03/07 06:20:41;;;;;;;19.35;10.48;;;1.40;89.90;;;;;;5032634;28;20036;-67
2023/03/07 06:23:07;;;;;;;19.85;11.18;;;1.50;89.90;;;;;;5036591;28;20057;-67
2023/03/07 06:25:32;;;;;;;18.63;10.70;;;1.40;90.00;;;;;;5035095;28;20112;-67
2023/03/07 06:28:00;;;;;;;19.10;10.68;;;1.40;90.00;;;;;;5036553;28;20407;-67
2023/03/07 06:30:27;;;;;;;18.38;10.70;;;1.40;90.30;;;;;;5033705;28;20025;-68
2023/03/07 06:32:52;;;;;;;18.17;10.93;;;1.30;90.40;;;;;;5033872;28;20033;-67
2023/03/07 06:35:18;;;;;;;17.50;10.55;;;1.30;90.50;;;;;;5036200;28;20036;-67
2023/03/07 06:37:43;;;;;;;19.63;11.13;;;1.30;90.80;;;;;;5036394;28;20033;-67
2023/03/07 06:40:09;;;;;;;18.55;11.45;;;1.30;90.90;;;;;;5020605;28;20057;-67
2023/03/07 06:42:35;;;;;;;19.70;10.57;;;1.30;91.00;;;;;;5045785;28;20046;-67
2023/03/07 06:45:01;;;;;;;19.17;11.65;;;1.30;90.90;;;;;;5034771;28;20109;-67
2023/03/07 06:47:27;;;;;;;20.70;13.32;;;1.30;91.10;;;;;;5027858;28;20105;-67
2023/03/07 06:49:54;;;;;;;18.05;10.77;;;1.40;90.60;;;;;;5037876;28;20428;-67
2023/03/07 06:52:20;;;;;;;20.13;11.70;;;1.50;90.20;;;;;;5028240;28;20372;-67
2023/03/07 06:54:45;;;;;;;20.88;11.75;;;1.60;89.80;;;;;;5029189;28;20033;-67
2023/03/07 06:57:11;;;;;;;16.42;9.55;;;1.70;89.60;;;;;;5028279;28;21855;-66
2023/03/07 06:59:36;;;;;;;18.65;10.40;;;1.70;89.30;;;;;;5036651;28;20402;-66
2023/03/07 07:02:02;;;;;;;18.70;9.80;;;1.80;88.70;;;;;;5034514;28;20318;-66
2023/03/07 07:04:28;;;;;;;19.00;11.15;;;2.00;88.40;;;;;;5035094;28;20377;-66
2023/03/07 07:06:54;;;;;;;19.58;10.73;;;2.00;88.20;;;;;;5040247;28;20038;-66
2023/03/07 07:09:19;;;;;;;23.10;12.00;;;2.10;88.20;;;;;;5034911;28;20061;-66
2023/03/07 07:11:45;;;;;;;16.02;10.07;;;2.10;88.20;;;;;;5027407;28;20035;-66
2023/03/07 07:14:11;;;;;;;18.05;9.50;;;2.10;88.10;;;;;;5037220;28;20029;-66
2023/03/07 07:16:36;;;;;;;18.30;10.52;;;2.20;87.60;;;;;;5038251;28;20057;-66
2023/03/07 07:19:02;;;;;;;19.38;10.30;;;2.20;87.60;;;;;;5032258;28;20026;-66
2023/03/07 07:21:28;;;;;;;18.58;10.90;;;2.20;87.50;;;;;;5031691;28;20108;-67
2023/03/07 07:23:56;;;;;;;17.58;10.50;;;2.30;87.40;;;;;;5030752;28;20087;-67
2023/03/07 07:26:23;;;;;;;19.02;10.82;;;2.50;87.60;;;;;;5044467;28;20029;-67
2023/03/07 07:28:48;;;;;;;15.65;9.30;;;2.70;86.90;;;;;;5023229;28;20030;-67
2023/03/07 07:31:14;;;;;;;19.50;10.43;;;2.70;86.20;;;;;;5029045;28;20532;-67
2023/03/07 07:33:40;;;;;;;18.02;10.02;;;2.60;86.00;;;;;;5031452;28;20068;-66
2023/03/07 07:36:06;;;;;;;21.42;11.02;;;2.60;86.30;;;;;;5031767;28;20064;-66
2023/03/07 07:38:32;;;;;;;20.00;11.10;;;2.50;86.10;;;;;;5037983;28;20487;-66
2023/03/07 07:40:58;;;;;;;18.67;9.55;;;2.70;85.80;;;;;;5027031;28;20033;-66
2023/03/07 07:43:23;;;;;;;15.02;9.35;;;2.70;85.60;;;;;;5033536;28;20025;-66
2023/03/07 07:45:49;;;;;;;16.45;9.55;;;2.70;85.60;;;;;;5027855;28;20034;-66
2023/03/07 07:48:15;;;;;;;17.63;10.52;;;2.90;85.20;;;;;;5042830;28;20364;-66
2023/03/07 07:50:43;;;;;;;17.40;9.52;;;2.90;85.00;;;;;;5028051;28;20104;-66
2023/03/07 07:53:09;;;;;;;16.17;9.63;;;2.90;85.40;;;;;;5031094;28;20028;-66
2023/03/07 07:55:34;;;;;;;19.48;9.55;;;3.20;85.30;;;;;;5037603;28;20025;-66
2023/03/07 07:58:00;;;;;;;16.27;9.88;;;3.40;84.10;;;;;;5029406;28;20295;-66
2023/03/07 08:00:26;;;;;;;15.73;9.70;;;3.10;84.50;;;;;;5033084;28;20049;-66
2023/03/07 08:02:51;;;;;;;15.63;9.02;;;3.20;84.70;;;;;;5029059;28;20033;-66
2023/03/07 08:05:18;;;;;;;20.15;10.27;;;3.30;84.50;;;;;;5036759;28;20033;-66
2023/03/07 08:07:44;;;;;;;16.80;9.57;;;3.40;84.20;;;;;;5036708;28;21002;-67
2023/03/07 08:10:14;;;;;;;18.10;9.32;;;3.30;84.00;;;;;;5038685;28;20305;-66
2023/03/07 08:12:41;;;;;;;16.38;9.70;;;3.30;84.50;;;;;;5029991;28;20025;-66
2023/03/07 08:15:07;;;;;;;14.13;8.82;;;3.50;84.10;;;;;;5023910;28;20025;-66
2023/03/07 08:17:32;;;;;;;17.38;9.75;;;3.40;82.70;;;;;;5038053;28;20030;-66
2023/03/07 08:20:00;;;;;;;18.10;10.82;;;3.50;83.10;;;;;;5033107;28;20061;-66
2023/03/07 08:22:26;;;;;;;18.15;8.63;;;3.80;83.00;;;;;;5025167;28;20076;-66
2023/03/07 08:24:52;;;;;;;15.85;9.05;;;4.00;82.20;;;;;;5035245;28;20105;-66
2023/03/07 08:27:17;;;;;;;17.30;10.23;;;4.10;82.00;;;;;;5023558;28;20053;-66
2023/03/07 08:29:47;;;;;;;19.20;10.25;;;4.20;81.70;;;;;;5034283;28;20029;-66
2023/03/07 08:32:14;;;;;;;17.42;10.38;;;4.20;81.40;;;;;;5017841;28;20037;-66
2023/03/07 08:34:39;;;;;;;18.42;10.95;;;3.80;81.90;;;;;;5018814;28;20046;-66
2023/03/07 08:37:05;;;;;;;17.05;10.93;;;3.80;83.10;;;;;;5054785;28;20056;-66
2023/03/07 08:39:30;;;;;;;16.27;9.88;;;3.70;83.30;;;;;;5038358;28;20030;-66
2023/03/07 08:41:56;;;;;;;17.55;9.05;;;3.70;83.40;;;;;;5035784;28;20068;-66
2023/03/07 08:44:21;;;;;;;16.45;9.23;;;4.10;82.40;;;;;;5020216;28;20022;-66
2023/03/07 08:46:47;;;;;;;15.65;9.95;;;4.30;81.70;;;;;;5036574;28;20030;-66
2023/03/07 08:49:12;;;;;;;16.00;9.30;;;4.30;80.70;;;;;;5037743;28;20029;-66
2023/03/07 08:51:38;;;;;;;17.05;10.07;;;4.40;80.70;;;;;;5023895;28;20041;-66
2023/03/07 08:54:04;;;;;;;15.88;9.50;;;4.30;80.30;;;;;;5022329;28;20032;-66
2023/03/07 08:56:29;;;;;;;15.75;8.90;;;4.00;80.70;;;;;;5030645;28;20037;-66
2023/03/07 08:58:55;;;;;;;16.45;10.07;;;4.00;81.80;;;;;;5020936;28;20304;-67
2023/03/07 09:01:20;;;;;;;17.92;9.60;;;4.20;81.50;;;;;;5036397;28;20350;-66
2023/03/07 09:03:46;;;;;;;13.13;8.20;;;4.30;81.00;;;;;;5030909;28;20030;-66
2023/03/07 09:06:17;;;;;;;16.63;9.50;;;4.10;81.00;;;;;;5028123;28;20030;-66
2023/03/07 09:08:43;;;;;;;15.48;9.27;;;4.10;81.40;;;;;;5037245;28;20446;-66
2023/03/07 09:11:08;;;;;;;16.60;9.52;;;3.90;81.20;;;;;;5032778;28;20029;-66
2023/03/07 09:13:34;;;;;;;17.30;9.52;;;3.70;81.50;;;;;;5021639;28;20084;-66
2023/03/07 09:16:03;;;;;;;18.13;9.98;;;3.40;82.80;;;;;;5027631;28;20030;-66
2023/03/07 09:18:29;;;;;;;18.52;10.18;;;3.30;83.30;;;;;;5035964;28;20036;-66
2023/03/07 09:20:57;;;;;;;15.48;9.00;;;3.20;83.70;;;;;;5037077;28;20025;-66
2023/03/07 09:23:23;;;;;;;21.75;11.73;;;3.20;83.90;;;;;;5036957;28;20035;-66
2023/03/07 09:25:48;;;;;;;17.92;9.40;;;3.20;83.40;;;;;;5019318;28;20108;-66
2023/03/07 09:28:14;;;;;;;30.40;15.38;;;3.40;83.10;;;;;;5017488;28;20470;-66
2023/03/07 09:30:39;;;;;;;21.20;12.13;;;3.40;82.70;;;;;;5016466;28;20429;-65
2023/03/07 09:33:05;;;;;;;20.60;10.60;;;3.50;82.70;;;;;;5027997;28;20326;-66
2023/03/07 09:35:30;;;;;;;15.10;8.50;;;3.80;81.70;;;;;;5033151;28;20036;-66
2023/03/07 09:37:56;;;;;;;15.52;9.35;;;3.80;81.30;;;;;;5036849;28;20029;-66
2023/03/07 09:40:24;;;;;;;18.10;9.65;;;4.00;80.60;;;;;;5032826;28;20119;-66
2023/03/07 09:43:25;;;;;;;17.55;9.38;;;4.00;80.60;;;;;;5024682;28;20022;-66
2023/03/07 09:46:15;;;;;;;16.83;9.15;;;4.20;80.20;;;;;;5030932;28;20095;-66
2023/03/07 09:48:44;;;;;;;19.60;11.13;;;4.30;79.30;;;;;;5019675;28;20426;-66
2023/03/07 09:51:18;;;;;;;16.02;9.35;;;4.10;78.50;;;;;;5031358;28;20036;-66
2023/03/07 09:53:52;;;;;;;17.00;9.23;;;3.90;79.00;;;;;;5035811;28;20460;-66
2023/03/07 09:56:27;;;;;;;18.20;9.63;;;3.80;78.80;;;;;;5029487;28;20037;-66
2023/03/07 09:59:01;;;;;;;16.52;10.00;;;3.90;79.70;;;;;;5026813;28;20045;-66
2023/03/07 10:01:30;;;;;;;14.43;8.88;;;4.10;78.80;;;;;;5035095;28;20026;-65
2023/03/07 10:03:59;;;;;;;17.08;9.60;;;4.10;78.80;;;;;;5035676;28;20333;-65
2023/03/07 10:06:38;;;;;;;18.15;9.82;;;4.10;79.30;;;;;;5036845;28;20314;-65
2023/03/07 10:09:11;;;;;;;15.10;8.73;;;4.00;78.50;;;;;;5020589;28;20452;-65
2023/03/07 10:11:52;;;;;;;15.38;8.85;;;3.80;78.20;;;;;;5028116;28;20041;-65
2023/03/07 10:14:27;;;;;;;22.98;11.93;;;3.80;78.40;;;;;;5030368;28;20048;-67
2023/03/07 10:17:24;;;;;;;17.63;10.68;;;4.00;78.90;;;;;;5020823;28;20034;-66
2023/03/07 10:19:54;;;;;;;18.60;10.75;;;4.30;77.40;;;;;;5025626;28;20025;-66
2023/03/07 10:22:34;;;;;;;16.23;9.18;;;4.40;76.10;;;;;;5035933;28;20032;-66
2023/03/07 10:25:24;;;;;;;14.43;8.07;;;4.30;74.40;;;;;;5024695;28;20030;-66
2023/03/07 10:27:58;;;;;;;16.17;7.95;;;4.40;74.30;;;;;;5017394;28;20022;-66
2023/03/07 10:30:23;;;;;;;14.20;8.27;;;4.40;74.00;;;;;;5035683;28;20027;-66
2023/03/07 10:32:54;;;;;;;14.85;7.93;;;4.80;73.60;;;;;;5025933;28;20030;-65
2023/03/07 10:35:21;;;;;;;15.75;8.55;;;5.10;72.30;;;;;;5029909;28;20140;-66
2023/03/07 10:37:55;;;;;;;16.48;9.43;;;5.00;73.80;;;;;;5031331;28;20033;-65
2023/03/07 10:40:38;;;;;;;16.17;9.27;;;5.60;72.50;;;;;;5035625;28;20039;-65
2023/03/07 10:43:06;;;;;;;20.15;10.70;;;5.30;72.50;;;;;;5033820;28;20029;-66
2023/03/07 10:45:32;;;;;;;17.20;9.23;;;4.90;73.90;;;;;;5034221;28;20025;-66
2023/03/07 10:48:14;;;;;;;15.88;9.40;;;5.00;74.00;;;;;;5033410;28;20112;-65
2023/03/07 10:51:14;;;;;;;19.85;9.70;;;4.80;73.20;;;;;;5035445;28;20069;-65
2023/03/07 10:53:40;;;;;;;18.33;10.82;;;4.70;73.30;;;;;;5032282;28;20037;-66
2023/03/07 10:56:15;;;;;;;20.83;10.93;;;4.60;73.70;;;;;;5030471;28;20029;-64
2023/03/07 10:59:01;;;;;;;19.05;10.43;;;4.60;73.90;;;;;;5029496;28;20045;-65
2023/03/07 11:01:28;;;;;;;17.77;10.70;;;4.70;74.00;;;;;;5028842;28;20037;-65
2023/03/07 11:04:05;;;;;;;17.85;9.65;;;4.60;74.20;;;;;;5030666;28;20037;-65
2023/03/07 11:06:34;;;;;;;23.20;11.45;;;4.60;74.50;;;;;;5018143;28;20121;-65
2023/03/07 11:09:25;;;;;;;21.05;11.15;;;4.60;75.10;;;;;;5023493;28;20048;-65
2023/03/07 11:12:12;;;;;;;18.27;9.50;;;4.90;75.00;;;;;;5016800;28;20033;-65
2023/03/07 11:15:16;;;;;;;19.50;10.48;;;5.10;74.20;;;;;;5019385;28;20022;-64
2023/03/07 11:17:44;;;;;;;16.65;9.50;;;4.90;73.50;;;;;;5026405;28;20033;-65
2023/03/07 11:20:47;;;;;;;20.20;10.50;;;5.50;73.60;;;;;;5036064;28;20098;-65
2023/03/07 11:23:15;;;;;;;17.77;9.95;;;5.70;73.00;;;;;;5024872;28;20375;-65
2023/03/07 11:25:41;;;;;;;19.42;10.98;;;5.80;71.70;;;;;;5035146;28;20386;-65
2023/03/07 11:28:28;;;;;;;27.27;15.10;;;5.50;72.10;;;;;;5032543;28;20036;-65
2023/03/07 11:31:09;;;;;;;20.17;10.70;;;5.20;73.00;;;;;;5032793;28;20022;-65
2023/03/07 11:33:49;;;;;;;25.05;12.98;;;5.40;73.20;;;;;;5015752;28;20030;-65
2023/03/07 11:36:38;;;;;;;28.60;13.77;;;5.40;72.30;;;;;;5031957;28;20018;-65
2023/03/07 11:39:11;;;;;;;23.77;12.23;;;5.40;72.80;;;;;;5019757;28;20033;-65
2023/03/07 11:41:40;;;;;;;24.77;11.88;;;5.40;72.90;;;;;;5031022;28;20036;-65
2023/03/07 11:44:30;;;;;;;25.73;13.10;;;5.10;72.70;;;;;;5020419;28;20033;-65
2023/03/07 11:47:16;;;;;;;23.98;11.95;;;5.20;73.70;;;;;;5030790;28;20021;-65
2023/03/07 11:50:00;;;;;;;19.13;10.70;;;5.30;72.70;;;;;;5026833;28;20025;-65
2023/03/07 11:52:34;;;;;;;25.63;11.68;;;5.70;72.40;;;;;;5030201;28;20076;-65
2023/03/07 11:55:30;;;;;;;22.25;12.35;;;5.90;72.60;;;;;;5037298;28;20112;-65
2023/03/07 11:58:08;;;;;;;21.88;11.80;;;6.20;71.00;;;;;;5030657;28;20033;-65
2023/03/07 12:00:51;;;;;;;25.77;12.85;;;5.70;71.40;;;;;;5030429;28;20128;-65
2023/03/07 12:03:29;;;;;;;23.70;10.48;;;5.70;72.00;;;;;;5033979;28;20325;-65
2023/03/07 12:06:17;;;;;;;20.17;11.00;;;5.70;72.50;;;;;;5039932;28;20109;-65
2023/03/07 12:08:54;;;;;;;22.23;11.60;;;5.70;72.10;;;;;;5037997;28;20442;-65
2023/03/07 12:11:38;;;;;;;14.98;9.30;;;5.40;72.50;;;;;;5031624;28;20034;-65
2023/03/07 12:14:14;;;;;;;19.27;10.40;;;5.50;73.50;;;;;;5021932;28;20148;-65
2023/03/07 12:17:22;;;;;;;18.75;11.10;;;6.50;72.70;;;;;;5017751;28;20080;-65
2023/03/07 12:20:11;;;;;;;19.50;12.60;;;6.80;70.60;;;;;;5001574;28;20386;-65
2023/03/07 12:22:46;;;;;;;18.45;10.20;;;6.70;69.50;;;;;;5038145;28;20033;-65
2023/03/07 12:25:28;;;;;;;20.50;11.05;;;7.10;69.70;;;;;;5038258;28;20025;-65
2023/03/07 12:28:05;;;;;;;19.00;10.73;;;6.60;70.00;;;;;;5036983;28;20030;-65
2023/03/07 12:31:08;;;;;;;17.83;9.98;;;6.00;71.30;;;;;;5036231;28;20434;-64
2023/03/07 12:34:03;;;;;;;19.50;11.63;;;5.70;72.40;;;;;;5019119;28;20061;-64
2023/03/07 12:36:38;;;;;;;20.45;11.40;;;5.30;73.70;;;;;;5018329;28;20049;-64
2023/03/07 12:39:15;;;;;;;18.02;10.95;;;5.20;74.10;;;;;;5025379;28;20065;-64
2023/03/07 12:41:49;;;;;;;20.95;12.30;;;5.60;74.50;;;;;;5027024;28;20229;-64
2023/03/07 12:44:34;;;;;;;19.02;11.52;;;6.10;72.70;;;;;;5031917;28;20053;-64
2023/03/07 12:47:12;;;;;;;17.17;10.70;;;6.20;70.60;;;;;;5033274;28;20044;-64
2023/03/07 12:50:03;;;;;;;18.48;10.27;;;6.40;69.90;;;;;;5018344;28;20022;-64
2023/03/07 12:53:06;;;;;;;17.08;9.82;;;6.60;69.00;;;;;;5018398;28;20029;-64